sensor_id;sensor_type;location;lat;lon;timestamp;temperature;humidity
73750;SHT30;62058;48.406;-4.514;2022-10-16T00:00:22;14.84;84.41
73750;SHT30;62058;48.406;-4.514;2022-10-16T00:02:48;14.83;84.36
73750;SHT30;62058;48.406;-4.514;2022-10-16T00:05:13;14.81;84.56
73750;SHT30;62058;48.406;-4.514;2022-10-16T00:07:38;14.84;84.47
73750;SHT30;62058;48.406;-4.514;2022-10-16T00:10:04;14.85;84.59
73750;SHT30;62058;48.406;-4.514;2022-10-16T00:12:30;14.84;84.66
73750;SHT30;62058;48.406;-4.514;2022-10-16T00:14:55;14.81;84.72
73750;SHT30;62058;48.406;-4.514;2022-10-16T00:17:20;14.77;84.87
73750;SHT30;62058;48.406;-4.514;2022-10-16T00:19:46;14.76;85.09
73750;SHT30;62058;48.406;-4.514;2022-10-16T00:22:11;14.73;85.20
73750;SHT30;62058;48.406;-4.514;2022-10-16T00:24:36;14.71;85.29
73750;SHT30;62058;48.406;-4.514;2022-10-16T00:27:02;14.68;85.38
73750;SHT30;62058;48.406;-4.514;2022-10-16T00:29:27;14.67;85.41
73750;SHT30;62058;48.406;-4.514;2022-10-16T00:31:52;14.66;85.52
73750;SHT30;62058;48.406;-4.514;2022-10-16T00:34:18;14.61;85.67
73750;SHT30;62058;48.406;-4.514;2022-10-16T00:36:43;14.60;85.82
73750;SHT30;62058;48.406;-4.514;2022-10-16T00:39:09;14.57;85.83
73750;SHT30;62058;48.406;-4.514;2022-10-16T00:41:34;14.54;86.06
73750;SHT30;62058;48.406;-4.514;2022-10-16T00:44:02;14.50;86.06
73750;SHT30;62058;48.406;-4.514;2022-10-16T00:46:41;14.50;85.99
73750;SHT30;62058;48.406;-4.514;2022-10-16T00:51:38;14.48;86.37
73750;SHT30;62058;48.406;-4.514;2022-10-16T00:54:10;14.47;86.37
73750;SHT30;62058;48.406;-4.514;2022-10-16T00:56:37;14.43;86.34
73750;SHT30;62058;48.406;-4.514;2022-10-16T00:59:14;14.41;86.55
73750;SHT30;62058;48.406;-4.514;2022-10-16T01:01:40;14.36;86.65
73750;SHT30;62058;48.406;-4.514;2022-10-16T01:04:05;14.36;86.58
73750;SHT30;62058;48.406;-4.514;2022-10-16T01:06:49;14.34;87.35
73750;SHT30;62058;48.406;-4.514;2022-10-16T01:09:35;14.33;86.73
73750;SHT30;62058;48.406;-4.514;2022-10-16T01:12:23;14.30;87.29
73750;SHT30;62058;48.406;-4.514;2022-10-16T01:17:37;14.27;87.33
73750;SHT30;62058;48.406;-4.514;2022-10-16T01:20:23;14.26;87.96
73750;SHT30;62058;48.406;-4.514;2022-10-16T01:23:04;14.27;88.00
73750;SHT30;62058;48.406;-4.514;2022-10-16T01:25:50;14.23;88.35
73750;SHT30;62058;48.406;-4.514;2022-10-16T01:28:21;14.22;88.48
73750;SHT30;62058;48.406;-4.514;2022-10-16T01:30:51;14.23;88.42
73750;SHT30;62058;48.406;-4.514;2022-10-16T01:33:21;14.23;88.78
73750;SHT30;62058;48.406;-4.514;2022-10-16T01:35:52;14.23;88.62
73750;SHT30;62058;48.406;-4.514;2022-10-16T01:38:29;14.22;88.39
73750;SHT30;62058;48.406;-4.514;2022-10-16T01:41:01;14.22;88.29
73750;SHT30;62058;48.406;-4.514;2022-10-16T01:43:34;14.20;88.39
73750;SHT30;62058;48.406;-4.514;2022-10-16T01:46:01;14.19;88.21
73750;SHT30;62058;48.406;-4.514;2022-10-16T01:48:29;14.19;88.35
73750;SHT30;62058;48.406;-4.514;2022-10-16T01:51:12;14.17;88.40
73750;SHT30;62058;48.406;-4.514;2022-10-16T01:53:40;14.19;87.70
73750;SHT30;62058;48.406;-4.514;2022-10-16T01:56:09;14.16;88.50
73750;SHT30;62058;48.406;-4.514;2022-10-16T01:58:44;14.14;88.63
73750;SHT30;62058;48.406;-4.514;2022-10-16T02:01:12;14.12;88.69
73750;SHT30;62058;48.406;-4.514;2022-10-16T02:03:41;14.12;88.65
73750;SHT30;62058;48.406;-4.514;2022-10-16T02:06:07;14.13;88.56
73750;SHT30;62058;48.406;-4.514;2022-10-16T02:08:33;14.14;87.90
73750;SHT30;62058;48.406;-4.514;2022-10-16T02:11:00;14.13;88.78
73750;SHT30;62058;48.406;-4.514;2022-10-16T02:13:33;14.10;88.80
73750;SHT30;62058;48.406;-4.514;2022-10-16T02:16:00;14.10;88.63
73750;SHT30;62058;48.406;-4.514;2022-10-16T02:18:26;14.09;89.02
73750;SHT30;62058;48.406;-4.514;2022-10-16T02:21:08;14.09;88.92
73750;SHT30;62058;48.406;-4.514;2022-10-16T02:26:14;14.06;88.73
73750;SHT30;62058;48.406;-4.514;2022-10-16T02:28:45;14.06;89.08
73750;SHT30;62058;48.406;-4.514;2022-10-16T02:31:16;14.08;88.88
73750;SHT30;62058;48.406;-4.514;2022-10-16T02:33:42;14.05;89.13
73750;SHT30;62058;48.406;-4.514;2022-10-16T02:36:09;14.02;89.36
73750;SHT30;62058;48.406;-4.514;2022-10-16T02:38:35;14.01;89.06
73750;SHT30;62058;48.406;-4.514;2022-10-16T02:41:01;14.01;89.06
73750;SHT30;62058;48.406;-4.514;2022-10-16T02:43:27;13.99;88.80
73750;SHT30;62058;48.406;-4.514;2022-10-16T02:45:52;13.96;89.06
73750;SHT30;62058;48.406;-4.514;2022-10-16T02:48:18;13.96;89.31
73750;SHT30;62058;48.406;-4.514;2022-10-16T02:50:43;13.93;89.63
73750;SHT30;62058;48.406;-4.514;2022-10-16T02:53:09;13.95;89.40
73750;SHT30;62058;48.406;-4.514;2022-10-16T02:55:34;13.90;89.45
73750;SHT30;62058;48.406;-4.514;2022-10-16T02:57:59;13.93;89.10
73750;SHT30;62058;48.406;-4.514;2022-10-16T03:00:25;13.95;89.24
73750;SHT30;62058;48.406;-4.514;2022-10-16T03:02:50;13.90;89.61
73750;SHT30;62058;48.406;-4.514;2022-10-16T03:05:16;13.93;88.83
73750;SHT30;62058;48.406;-4.514;2022-10-16T03:07:41;13.90;89.09
73750;SHT30;62058;48.406;-4.514;2022-10-16T03:10:07;13.87;89.17
73750;SHT30;62058;48.406;-4.514;2022-10-16T03:12:33;13.86;89.14
73750;SHT30;62058;48.406;-4.514;2022-10-16T03:14:58;13.83;89.21
73750;SHT30;62058;48.406;-4.514;2022-10-16T03:17:24;13.82;89.57
73750;SHT30;62058;48.406;-4.514;2022-10-16T03:19:50;13.81;89.54
73750;SHT30;62058;48.406;-4.514;2022-10-16T03:22:15;13.81;89.36
73750;SHT30;62058;48.406;-4.514;2022-10-16T03:24:40;13.81;89.75
73750;SHT30;62058;48.406;-4.514;2022-10-16T03:27:08;13.79;89.90
73750;SHT30;62058;48.406;-4.514;2022-10-16T03:29:33;13.81;89.93
73750;SHT30;62058;48.406;-4.514;2022-10-16T03:31:59;13.82;89.81
73750;SHT30;62058;48.406;-4.514;2022-10-16T03:34:25;13.79;89.92
73750;SHT30;62058;48.406;-4.514;2022-10-16T03:36:51;13.83;89.75
73750;SHT30;62058;48.406;-4.514;2022-10-16T03:39:16;13.81;89.89
73750;SHT30;62058;48.406;-4.514;2022-10-16T03:41:42;13.81;89.64
73750;SHT30;62058;48.406;-4.514;2022-10-16T03:44:07;13.81;89.51
73750;SHT30;62058;48.406;-4.514;2022-10-16T03:46:32;13.81;89.63
73750;SHT30;62058;48.406;-4.514;2022-10-16T03:48:58;13.79;89.67
73750;SHT30;62058;48.406;-4.514;2022-10-16T03:51:23;13.76;89.69
73750;SHT30;62058;48.406;-4.514;2022-10-16T03:53:49;13.78;89.67
73750;SHT30;62058;48.406;-4.514;2022-10-16T03:56:14;13.73;89.64
73750;SHT30;62058;48.406;-4.514;2022-10-16T03:58:40;13.73;89.84
73750;SHT30;62058;48.406;-4.514;2022-10-16T04:01:05;13.73;89.42
73750;SHT30;62058;48.406;-4.514;2022-10-16T04:03:30;13.69;89.47
73750;SHT30;62058;48.406;-4.514;2022-10-16T04:05:56;13.69;89.59
73750;SHT30;62058;48.406;-4.514;2022-10-16T04:08:22;13.66;89.69
73750;SHT30;62058;48.406;-4.514;2022-10-16T04:10:47;13.66;89.46
73750;SHT30;62058;48.406;-4.514;2022-10-16T04:13:13;13.63;89.86
73750;SHT30;62058;48.406;-4.514;2022-10-16T04:15:38;13.65;89.77
73750;SHT30;62058;48.406;-4.514;2022-10-16T04:18:04;13.63;89.75
73750;SHT30;62058;48.406;-4.514;2022-10-16T04:20:30;13.62;89.74
73750;SHT30;62058;48.406;-4.514;2022-10-16T04:22:55;13.62;89.86
73750;SHT30;62058;48.406;-4.514;2022-10-16T04:25:21;13.62;89.74
73750;SHT30;62058;48.406;-4.514;2022-10-16T04:27:47;13.61;89.83
73750;SHT30;62058;48.406;-4.514;2022-10-16T04:30:12;13.61;89.35
73750;SHT30;62058;48.406;-4.514;2022-10-16T04:32:38;13.65;90.11
73750;SHT30;62058;48.406;-4.514;2022-10-16T04:35:03;13.66;89.85
73750;SHT30;62058;48.406;-4.514;2022-10-16T04:37:29;13.68;90.16
73750;SHT30;62058;48.406;-4.514;2022-10-16T04:39:54;13.69;90.10
73750;SHT30;62058;48.406;-4.514;2022-10-16T04:42:21;13.73;90.19
73750;SHT30;62058;48.406;-4.514;2022-10-16T04:44:46;13.72;90.15
73750;SHT30;62058;48.406;-4.514;2022-10-16T04:47:12;13.72;90.20
73750;SHT30;62058;48.406;-4.514;2022-10-16T04:49:38;13.73;90.35
73750;SHT30;62058;48.406;-4.514;2022-10-16T04:52:03;13.76;90.24
73750;SHT30;62058;48.406;-4.514;2022-10-16T04:54:29;13.79;90.09
73750;SHT30;62058;48.406;-4.514;2022-10-16T04:56:54;13.79;90.36
73750;SHT30;62058;48.406;-4.514;2022-10-16T04:59:20;13.79;90.15
73750;SHT30;62058;48.406;-4.514;2022-10-16T05:01:45;13.81;89.93
73750;SHT30;62058;48.406;-4.514;2022-10-16T05:04:11;13.82;90.31
73750;SHT30;62058;48.406;-4.514;2022-10-16T05:06:38;13.82;90.20
73750;SHT30;62058;48.406;-4.514;2022-10-16T05:09:07;13.81;90.28
73750;SHT30;62058;48.406;-4.514;2022-10-16T05:11:33;13.83;90.16
73750;SHT30;62058;48.406;-4.514;2022-10-16T05:13:59;13.82;90.36
73750;SHT30;62058;48.406;-4.514;2022-10-16T05:16:24;13.86;90.25
73750;SHT30;62058;48.406;-4.514;2022-10-16T05:18:51;13.89;90.27
73750;SHT30;62058;48.406;-4.514;2022-10-16T05:21:17;13.89;90.25
73750;SHT30;62058;48.406;-4.514;2022-10-16T05:23:42;13.93;90.09
73750;SHT30;62058;48.406;-4.514;2022-10-16T05:26:08;13.93;89.90
73750;SHT30;62058;48.406;-4.514;2022-10-16T05:28:33;13.92;90.15
73750;SHT30;62058;48.406;-4.514;2022-10-16T05:30:59;13.90;90.30
73750;SHT30;62058;48.406;-4.514;2022-10-16T05:33:25;13.92;90.15
73750;SHT30;62058;48.406;-4.514;2022-10-16T05:35:51;13.90;90.27
73750;SHT30;62058;48.406;-4.514;2022-10-16T05:38:17;13.89;90.27
73750;SHT30;62058;48.406;-4.514;2022-10-16T05:40:43;13.89;90.05
73750;SHT30;62058;48.406;-4.514;2022-10-16T05:43:08;13.89;90.20
73750;SHT30;62058;48.406;-4.514;2022-10-16T05:45:34;13.87;90.13
73750;SHT30;62058;48.406;-4.514;2022-10-16T05:48:00;13.87;90.17
73750;SHT30;62058;48.406;-4.514;2022-10-16T05:50:26;13.90;89.85
73750;SHT30;62058;48.406;-4.514;2022-10-16T05:52:52;13.90;90.09
73750;SHT30;62058;48.406;-4.514;2022-10-16T05:55:17;13.90;90.11
73750;SHT30;62058;48.406;-4.514;2022-10-16T05:57:42;13.89;89.93
73750;SHT30;62058;48.406;-4.514;2022-10-16T06:00:08;13.89;90.15
73750;SHT30;62058;48.406;-4.514;2022-10-16T06:02:34;13.86;89.97
73750;SHT30;62058;48.406;-4.514;2022-10-16T06:04:59;13.87;90.33
73750;SHT30;62058;48.406;-4.514;2022-10-16T06:07:25;13.85;90.37
73750;SHT30;62058;48.406;-4.514;2022-10-16T06:09:51;13.85;90.11
73750;SHT30;62058;48.406;-4.514;2022-10-16T06:12:17;13.83;90.14
73750;SHT30;62058;48.406;-4.514;2022-10-16T06:14:42;13.82;90.39
73750;SHT30;62058;48.406;-4.514;2022-10-16T06:17:07;13.82;90.38
73750;SHT30;62058;48.406;-4.514;2022-10-16T06:19:33;13.81;90.39
73750;SHT30;62058;48.406;-4.514;2022-10-16T06:21:58;13.82;90.29
73750;SHT30;62058;48.406;-4.514;2022-10-16T06:24:24;13.82;89.69
73750;SHT30;62058;48.406;-4.514;2022-10-16T06:26:50;13.82;89.84
73750;SHT30;62058;48.406;-4.514;2022-10-16T06:29:15;13.82;90.13
73750;SHT30;62058;48.406;-4.514;2022-10-16T06:31:41;13.81;89.97
73750;SHT30;62058;48.406;-4.514;2022-10-16T06:34:09;13.78;90.06
73750;SHT30;62058;48.406;-4.514;2022-10-16T06:36:36;13.78;89.75
73750;SHT30;62058;48.406;-4.514;2022-10-16T06:39:02;13.81;89.94
73750;SHT30;62058;48.406;-4.514;2022-10-16T06:41:27;13.81;89.87
73750;SHT30;62058;48.406;-4.514;2022-10-16T06:43:53;13.78;89.83
73750;SHT30;62058;48.406;-4.514;2022-10-16T06:46:22;13.81;89.89
73750;SHT30;62058;48.406;-4.514;2022-10-16T06:48:49;13.83;89.68
73750;SHT30;62058;48.406;-4.514;2022-10-16T06:51:19;13.87;89.88
73750;SHT30;62058;48.406;-4.514;2022-10-16T06:53:47;13.93;89.53
73750;SHT30;62058;48.406;-4.514;2022-10-16T06:56:21;13.98;89.53
73750;SHT30;62058;48.406;-4.514;2022-10-16T06:58:47;13.98;89.32
73750;SHT30;62058;48.406;-4.514;2022-10-16T07:01:14;14.01;89.38
73750;SHT30;62058;48.406;-4.514;2022-10-16T07:03:41;14.05;89.27
73750;SHT30;62058;48.406;-4.514;2022-10-16T07:06:09;14.01;89.08
73750;SHT30;62058;48.406;-4.514;2022-10-16T07:08:36;14.06;89.13
73750;SHT30;62058;48.406;-4.514;2022-10-16T07:11:07;14.08;88.93
73750;SHT30;62058;48.406;-4.514;2022-10-16T07:13:34;14.08;88.77
73750;SHT30;62058;48.406;-4.514;2022-10-16T07:16:14;14.12;88.81
73750;SHT30;62058;48.406;-4.514;2022-10-16T07:18:40;14.14;88.85
73750;SHT30;62058;48.406;-4.514;2022-10-16T07:21:21;14.17;88.52
73750;SHT30;62058;48.406;-4.514;2022-10-16T07:23:53;14.23;88.69
73750;SHT30;62058;48.406;-4.514;2022-10-16T07:26:19;14.24;88.06
73750;SHT30;62058;48.406;-4.514;2022-10-16T07:28:45;14.30;88.18
73750;SHT30;62058;48.406;-4.514;2022-10-16T07:31:13;14.34;88.23
73750;SHT30;62058;48.406;-4.514;2022-10-16T07:33:40;14.37;88.27
73750;SHT30;62058;48.406;-4.514;2022-10-16T07:36:07;14.43;88.15
73750;SHT30;62058;48.406;-4.514;2022-10-16T07:38:33;14.50;88.23
73750;SHT30;62058;48.406;-4.514;2022-10-16T07:41:04;14.59;87.48
73750;SHT30;62058;48.406;-4.514;2022-10-16T07:43:30;14.66;87.33
73750;SHT30;62058;48.406;-4.514;2022-10-16T07:45:56;14.70;87.25
73750;SHT30;62058;48.406;-4.514;2022-10-16T07:48:23;14.74;87.14
73750;SHT30;62058;48.406;-4.514;2022-10-16T07:50:49;14.78;86.75
73750;SHT30;62058;48.406;-4.514;2022-10-16T07:53:14;14.77;86.43
73750;SHT30;62058;48.406;-4.514;2022-10-16T07:55:41;14.83;86.99
73750;SHT30;62058;48.406;-4.514;2022-10-16T07:58:06;14.85;86.85
73750;SHT30;62058;48.406;-4.514;2022-10-16T08:00:32;14.88;86.03
73750;SHT30;62058;48.406;-4.514;2022-10-16T08:02:58;14.91;86.75
73750;SHT30;62058;48.406;-4.514;2022-10-16T08:05:30;14.95;86.06
73750;SHT30;62058;48.406;-4.514;2022-10-16T08:07:56;15.05;85.97
73750;SHT30;62058;48.406;-4.514;2022-10-16T08:10:24;15.15;85.85
73750;SHT30;62058;48.406;-4.514;2022-10-16T08:12:50;15.19;86.03
73750;SHT30;62058;48.406;-4.514;2022-10-16T08:15:16;15.25;85.46
73750;SHT30;62058;48.406;-4.514;2022-10-16T08:17:41;15.34;85.06
73750;SHT30;62058;48.406;-4.514;2022-10-16T08:20:07;15.42;85.20
73750;SHT30;62058;48.406;-4.514;2022-10-16T08:22:33;15.50;85.50
73750;SHT30;62058;48.406;-4.514;2022-10-16T08:24:58;15.55;85.07
73750;SHT30;62058;48.406;-4.514;2022-10-16T08:27:23;15.60;84.75
73750;SHT30;62058;48.406;-4.514;2022-10-16T08:29:49;15.70;84.00
73750;SHT30;62058;48.406;-4.514;2022-10-16T08:32:15;15.78;84.46
73750;SHT30;62058;48.406;-4.514;2022-10-16T08:34:40;15.79;84.07
73750;SHT30;62058;48.406;-4.514;2022-10-16T08:37:05;15.78;84.38
73750;SHT30;62058;48.406;-4.514;2022-10-16T08:39:33;15.85;84.71
73750;SHT30;62058;48.406;-4.514;2022-10-16T08:45:19;16.00;84.48
73750;SHT30;62058;48.406;-4.514;2022-10-16T08:50:27;16.11;83.80
73750;SHT30;62058;48.406;-4.514;2022-10-16T08:52:53;16.17;84.53
73750;SHT30;62058;48.406;-4.514;2022-10-16T08:57:53;16.25;84.64
73750;SHT30;62058;48.406;-4.514;2022-10-16T09:00:19;16.27;83.72
73750;SHT30;62058;48.406;-4.514;2022-10-16T09:05:41;16.35;84.56
73750;SHT30;62058;48.406;-4.514;2022-10-16T09:11:36;16.35;83.45
73750;SHT30;62058;48.406;-4.514;2022-10-16T09:22:27;16.57;83.00
73750;SHT30;62058;48.406;-4.514;2022-10-16T09:24:56;16.60;83.58
73750;SHT30;62058;48.406;-4.514;2022-10-16T09:27:24;16.61;83.38
73750;SHT30;62058;48.406;-4.514;2022-10-16T09:29:55;16.58;83.70
73750;SHT30;62058;48.406;-4.514;2022-10-16T09:32:22;16.62;82.51
73750;SHT30;62058;48.406;-4.514;2022-10-16T09:34:50;16.68;83.12
73750;SHT30;62058;48.406;-4.514;2022-10-16T09:37:21;16.72;81.93
73750;SHT30;62058;48.406;-4.514;2022-10-16T09:39:52;16.72;83.25
73750;SHT30;62058;48.406;-4.514;2022-10-16T09:42:18;16.72;83.24
73750;SHT30;62058;48.406;-4.514;2022-10-16T09:44:50;16.69;81.35
73750;SHT30;62058;48.406;-4.514;2022-10-16T09:47:18;16.75;81.92
73750;SHT30;62058;48.406;-4.514;2022-10-16T09:49:59;16.76;83.20
73750;SHT30;62058;48.406;-4.514;2022-10-16T09:52:28;16.81;81.84
73750;SHT30;62058;48.406;-4.514;2022-10-16T09:54:58;16.86;81.74
73750;SHT30;62058;48.406;-4.514;2022-10-16T09:57:24;16.95;81.59
73750;SHT30;62058;48.406;-4.514;2022-10-16T09:59:52;17.12;81.22
73750;SHT30;62058;48.406;-4.514;2022-10-16T10:02:29;17.25;83.32
73750;SHT30;62058;48.406;-4.514;2022-10-16T10:04:55;17.30;81.93
73750;SHT30;62058;48.406;-4.514;2022-10-16T10:07:29;17.30;80.99
73750;SHT30;62058;48.406;-4.514;2022-10-16T10:09:58;17.27;82.31
73750;SHT30;62058;48.406;-4.514;2022-10-16T10:12:27;17.23;81.88
73750;SHT30;62058;48.406;-4.514;2022-10-16T10:14:56;17.13;82.48
73750;SHT30;62058;48.406;-4.514;2022-10-16T10:17:29;16.99;82.26
73750;SHT30;62058;48.406;-4.514;2022-10-16T10:19:57;16.96;83.08
73750;SHT30;62058;48.406;-4.514;2022-10-16T10:22:40;16.98;82.78
73750;SHT30;62058;48.406;-4.514;2022-10-16T10:52:02;17.39;83.43
73750;SHT30;62058;48.406;-4.514;2022-10-16T10:57:32;17.32;83.76
73750;SHT30;62058;48.406;-4.514;2022-10-16T11:05:30;17.26;83.85
73750;SHT30;62058;48.406;-4.514;2022-10-16T11:08:01;17.30;83.93
73750;SHT30;62058;48.406;-4.514;2022-10-16T11:11:00;17.36;83.98
73750;SHT30;62058;48.406;-4.514;2022-10-16T11:16:33;17.62;82.85
73750;SHT30;62058;48.406;-4.514;2022-10-16T11:19:14;17.66;83.35
73750;SHT30;62058;48.406;-4.514;2022-10-16T11:21:50;17.69;83.64
73750;SHT30;62058;48.406;-4.514;2022-10-16T11:24:23;17.63;83.14
73750;SHT30;62058;48.406;-4.514;2022-10-16T11:26:53;17.63;83.20
73750;SHT30;62058;48.406;-4.514;2022-10-16T11:29:27;17.60;83.72
73750;SHT30;62058;48.406;-4.514;2022-10-16T11:32:01;17.63;84.01
73750;SHT30;62058;48.406;-4.514;2022-10-16T11:34:42;17.59;83.79
73750;SHT30;62058;48.406;-4.514;2022-10-16T11:37:14;17.59;84.28
73750;SHT30;62058;48.406;-4.514;2022-10-16T11:39:44;17.57;84.45
73750;SHT30;62058;48.406;-4.514;2022-10-16T11:42:13;17.56;84.61
73750;SHT30;62058;48.406;-4.514;2022-10-16T11:47:47;17.54;84.74
73750;SHT30;62058;48.406;-4.514;2022-10-16T11:53:53;17.53;84.93
73750;SHT30;62058;48.406;-4.514;2022-10-16T11:56:20;17.51;85.12
73750;SHT30;62058;48.406;-4.514;2022-10-16T11:58:54;17.46;85.32
73750;SHT30;62058;48.406;-4.514;2022-10-16T12:07:07;17.35;85.78
73750;SHT30;62058;48.406;-4.514;2022-10-16T12:09:38;17.33;86.10
73750;SHT30;62058;48.406;-4.514;2022-10-16T12:12:04;17.27;85.99
73750;SHT30;62058;48.406;-4.514;2022-10-16T12:14:42;17.25;86.36
73750;SHT30;62058;48.406;-4.514;2022-10-16T12:20:41;17.22;86.48
73750;SHT30;62058;48.406;-4.514;2022-10-16T12:25:26;17.12;87.15
73750;SHT30;62058;48.406;-4.514;2022-10-16T12:28:20;17.09;87.13
73750;SHT30;62058;48.406;-4.514;2022-10-16T12:31:01;17.06;87.19
73750;SHT30;62058;48.406;-4.514;2022-10-16T12:33:32;17.06;88.28
73750;SHT30;62058;48.406;-4.514;2022-10-16T12:36:01;17.02;88.14
73750;SHT30;62058;48.406;-4.514;2022-10-16T12:38:46;16.98;87.98
73750;SHT30;62058;48.406;-4.514;2022-10-16T12:41:12;16.99;88.77
73750;SHT30;62058;48.406;-4.514;2022-10-16T12:43:46;16.99;88.56
73750;SHT30;62058;48.406;-4.514;2022-10-16T12:48:40;16.94;88.60
73750;SHT30;62058;48.406;-4.514;2022-10-16T12:51:12;16.94;89.00
73750;SHT30;62058;48.406;-4.514;2022-10-16T12:53:46;16.94;89.53
73750;SHT30;62058;48.406;-4.514;2022-10-16T12:56:20;16.91;89.17
73750;SHT30;62058;48.406;-4.514;2022-10-16T12:59:05;16.98;89.85
73750;SHT30;62058;48.406;-4.514;2022-10-16T13:04:30;16.89;90.27
73750;SHT30;62058;48.406;-4.514;2022-10-16T13:10:10;16.94;91.29
73750;SHT30;62058;48.406;-4.514;2022-10-16T13:13:09;16.98;90.93
73750;SHT30;62058;48.406;-4.514;2022-10-16T13:28:39;17.09;93.70
73750;SHT30;62058;48.406;-4.514;2022-10-16T13:31:05;17.08;92.92
73750;SHT30;62058;48.406;-4.514;2022-10-16T13:33:46;17.11;92.94
73750;SHT30;62058;48.406;-4.514;2022-10-16T13:36:27;17.12;92.97
73750;SHT30;62058;48.406;-4.514;2022-10-16T13:41:40;17.19;92.52
73750;SHT30;62058;48.406;-4.514;2022-10-16T13:44:19;17.25;92.39
73750;SHT30;62058;48.406;-4.514;2022-10-16T13:46:45;17.26;92.37
73750;SHT30;62058;48.406;-4.514;2022-10-16T13:49:14;17.30;92.23
73750;SHT30;62058;48.406;-4.514;2022-10-16T13:51:39;17.32;92.17
73750;SHT30;62058;48.406;-4.514;2022-10-16T13:54:05;17.37;91.96
73750;SHT30;62058;48.406;-4.514;2022-10-16T13:56:32;17.37;91.74
73750;SHT30;62058;48.406;-4.514;2022-10-16T13:58:59;17.42;91.75
73750;SHT30;62058;48.406;-4.514;2022-10-16T14:01:40;17.45;91.82
73750;SHT30;62058;48.406;-4.514;2022-10-16T14:04:11;17.53;91.81
73750;SHT30;62058;48.406;-4.514;2022-10-16T14:06:42;17.56;91.83
73750;SHT30;62058;48.406;-4.514;2022-10-16T14:09:28;17.59;91.04
73750;SHT30;62058;48.406;-4.514;2022-10-16T14:12:00;17.69;91.05
73750;SHT30;62058;48.406;-4.514;2022-10-16T14:14:32;17.63;90.94
73750;SHT30;62058;48.406;-4.514;2022-10-16T14:16:59;17.62;90.75
73750;SHT30;62058;48.406;-4.514;2022-10-16T14:19:27;17.66;90.76
73750;SHT30;62058;48.406;-4.514;2022-10-16T14:21:53;17.70;90.79
73750;SHT30;62058;48.406;-4.514;2022-10-16T14:24:35;17.70;90.70
73750;SHT30;62058;48.406;-4.514;2022-10-16T14:27:01;17.70;90.60
73750;SHT30;62058;48.406;-4.514;2022-10-16T14:29:28;17.74;90.55
73750;SHT30;62058;48.406;-4.514;2022-10-16T14:32:01;17.69;90.48
73750;SHT30;62058;48.406;-4.514;2022-10-16T14:34:32;17.74;90.34
73750;SHT30;62058;48.406;-4.514;2022-10-16T14:37:00;17.76;90.43
73750;SHT30;62058;48.406;-4.514;2022-10-16T14:39:32;17.83;90.35
73750;SHT30;62058;48.406;-4.514;2022-10-16T14:41:57;17.83;90.30
73750;SHT30;62058;48.406;-4.514;2022-10-16T14:44:33;17.81;89.72
73750;SHT30;62058;48.406;-4.514;2022-10-16T14:47:07;17.84;89.86
73750;SHT30;62058;48.406;-4.514;2022-10-16T14:49:33;17.83;89.72
73750;SHT30;62058;48.406;-4.514;2022-10-16T14:51:58;17.86;90.11
73750;SHT30;62058;48.406;-4.514;2022-10-16T14:54:24;17.88;90.33
73750;SHT30;62058;48.406;-4.514;2022-10-16T14:56:58;17.87;90.44
73750;SHT30;62058;48.406;-4.514;2022-10-16T14:59:42;17.87;90.21
73750;SHT30;62058;48.406;-4.514;2022-10-16T15:02:31;17.88;90.28
73750;SHT30;62058;48.406;-4.514;2022-10-16T15:05:07;17.84;89.82
73750;SHT30;62058;48.406;-4.514;2022-10-16T15:07:35;17.86;90.19
73750;SHT30;62058;48.406;-4.514;2022-10-16T15:10:01;17.83;89.97
73750;SHT30;62058;48.406;-4.514;2022-10-16T15:12:26;17.88;89.85
73750;SHT30;62058;48.406;-4.514;2022-10-16T15:14:51;17.86;89.80
73750;SHT30;62058;48.406;-4.514;2022-10-16T15:17:17;17.88;89.96
73750;SHT30;62058;48.406;-4.514;2022-10-16T15:19:42;17.87;89.99
73750;SHT30;62058;48.406;-4.514;2022-10-16T15:22:10;17.87;89.85
73750;SHT30;62058;48.406;-4.514;2022-10-16T15:24:36;17.88;89.70
73750;SHT30;62058;48.406;-4.514;2022-10-16T15:27:01;17.93;89.83
73750;SHT30;62058;48.406;-4.514;2022-10-16T15:29:27;17.91;89.35
73750;SHT30;62058;48.406;-4.514;2022-10-16T15:31:52;17.93;89.55
73750;SHT30;62058;48.406;-4.514;2022-10-16T15:34:17;17.93;89.68
73750;SHT30;62058;48.406;-4.514;2022-10-16T15:36:44;17.94;89.69
73750;SHT30;62058;48.406;-4.514;2022-10-16T15:39:16;17.94;89.88
73750;SHT30;62058;48.406;-4.514;2022-10-16T15:41:42;17.97;89.74
73750;SHT30;62058;48.406;-4.514;2022-10-16T15:44:07;17.98;89.61
73750;SHT30;62058;48.406;-4.514;2022-10-16T15:46:33;17.94;89.95
73750;SHT30;62058;48.406;-4.514;2022-10-16T15:48:59;17.90;90.09
73750;SHT30;62058;48.406;-4.514;2022-10-16T15:51:26;17.86;90.12
73750;SHT30;62058;48.406;-4.514;2022-10-16T15:53:55;17.86;90.22
73750;SHT30;62058;48.406;-4.514;2022-10-16T15:56:21;17.83;90.31
73750;SHT30;62058;48.406;-4.514;2022-10-16T15:58:47;17.83;90.49
73750;SHT30;62058;48.406;-4.514;2022-10-16T16:01:12;17.81;90.30
73750;SHT30;62058;48.406;-4.514;2022-10-16T16:03:39;17.86;90.39
73750;SHT30;62058;48.406;-4.514;2022-10-16T16:06:09;17.87;90.42
73750;SHT30;62058;48.406;-4.514;2022-10-16T16:08:35;17.86;90.26
73750;SHT30;62058;48.406;-4.514;2022-10-16T16:11:04;17.86;90.35
73750;SHT30;62058;48.406;-4.514;2022-10-16T16:13:29;17.86;90.22
73750;SHT30;62058;48.406;-4.514;2022-10-16T16:15:55;17.93;90.27
73750;SHT30;62058;48.406;-4.514;2022-10-16T16:18:21;17.93;90.26
73750;SHT30;62058;48.406;-4.514;2022-10-16T16:20:47;17.91;90.15
73750;SHT30;62058;48.406;-4.514;2022-10-16T16:23:13;17.94;90.04
73750;SHT30;62058;48.406;-4.514;2022-10-16T16:25:39;17.91;90.10
73750;SHT30;62058;48.406;-4.514;2022-10-16T16:28:04;18.00;89.99
73750;SHT30;62058;48.406;-4.514;2022-10-16T16:30:29;18.04;89.88
73750;SHT30;62058;48.406;-4.514;2022-10-16T16:32:55;17.98;89.88
73750;SHT30;62058;48.406;-4.514;2022-10-16T16:35:20;17.96;89.98
73750;SHT30;62058;48.406;-4.514;2022-10-16T16:37:47;17.97;89.99
73750;SHT30;62058;48.406;-4.514;2022-10-16T16:40:12;17.94;90.42
73750;SHT30;62058;48.406;-4.514;2022-10-16T16:42:38;17.93;90.59
73750;SHT30;62058;48.406;-4.514;2022-10-16T16:45:04;17.88;90.82
73750;SHT30;62058;48.406;-4.514;2022-10-16T16:47:32;17.90;90.69
73750;SHT30;62058;48.406;-4.514;2022-10-16T16:49:57;17.81;90.81
73750;SHT30;62058;48.406;-4.514;2022-10-16T16:52:23;17.81;91.39
73750;SHT30;62058;48.406;-4.514;2022-10-16T16:54:48;17.78;91.43
73750;SHT30;62058;48.406;-4.514;2022-10-16T16:57:20;17.76;91.43
73750;SHT30;62058;48.406;-4.514;2022-10-16T16:59:46;17.76;91.80
73750;SHT30;62058;48.406;-4.514;2022-10-16T17:02:11;17.63;91.51
73750;SHT30;62058;48.406;-4.514;2022-10-16T17:04:37;17.70;91.63
73750;SHT30;62058;48.406;-4.514;2022-10-16T17:07:02;17.65;91.72
73750;SHT30;62058;48.406;-4.514;2022-10-16T17:09:28;17.65;91.61
73750;SHT30;62058;48.406;-4.514;2022-10-16T17:11:53;17.59;91.89
73750;SHT30;62058;48.406;-4.514;2022-10-16T17:14:19;17.57;92.05